createdAt,value
2018-07-27T00:04:43.576Z,4.70
2018-07-27T00:14:53.106Z,4.43
2018-07-27T00:19:44.076Z,4.97
2018-07-27T00:24:35.767Z,5.23
2018-07-27T00:29:26.686Z,5.43
2018-07-27T00:34:17.601Z,5.13
2018-07-27T00:39:08.498Z,5.27
2018-07-27T00:43:59.395Z,7.00
2018-07-27T00:48:50.299Z,5.37
2018-07-27T00:53:41.968Z,4.73
2018-07-27T00:58:32.940Z,5.30
2018-07-27T01:03:23.858Z,5.83
2018-07-27T01:08:14.782Z,5.30
2018-07-27T01:13:06.525Z,6.20
2018-07-27T01:17:57.446Z,5.03
2018-07-27T01:22:48.483Z,5.47
2018-07-27T01:27:40.133Z,5.70
2018-07-27T01:32:31.051Z,5.77
2018-07-27T01:37:21.961Z,5.23
2018-07-27T01:42:12.962Z,5.90
2018-07-27T01:47:04.630Z,5.77
2018-07-27T01:51:55.613Z,5.87
2018-07-27T01:56:47.279Z,6.23
2018-07-27T02:01:38.203Z,5.90
2018-07-27T02:06:29.188Z,5.20
2018-07-27T02:11:20.097Z,6.40
2018-07-27T02:16:11.030Z,6.43
2018-07-27T02:21:02.694Z,6.73
2018-07-27T02:25:53.655Z,6.07
2018-07-27T02:30:44.554Z,6.37
2018-07-27T02:35:35.471Z,6.90
2018-07-27T02:40:26.377Z,5.60
2018-07-27T02:45:17.288Z,6.70
2018-07-27T02:50:08.208Z,5.93
2018-07-27T02:54:59.155Z,6.23
2018-07-27T02:59:50.069Z,5.93
2018-07-27T03:04:41.020Z,7.17
2018-07-27T03:09:32.075Z,6.37
2018-07-27T03:14:22.950Z,6.00
2018-07-27T03:19:13.876Z,6.60
2018-07-27T03:24:04.883Z,8.07
2018-07-27T03:28:55.803Z,7.03
2018-07-27T03:33:46.699Z,6.67
2018-07-27T03:38:37.659Z,7.37
2018-07-27T03:43:28.574Z,7.20
2018-07-27T03:48:19.570Z,7.20
2018-07-27T03:53:10.471Z,8.13
2018-07-27T03:58:01.389Z,6.30
2018-07-27T04:02:52.341Z,6.80
2018-07-27T04:07:44.730Z,6.97
2018-07-27T04:12:35.633Z,7.53
2018-07-27T04:17:27.331Z,6.93
2018-07-27T04:22:18.258Z,7.17
2018-07-27T04:27:09.181Z,6.70
2018-07-27T04:32:00.079Z,7.33
2018-07-27T04:36:51.105Z,7.80
2018-07-27T04:41:42.006Z,8.07
2018-07-27T04:46:32.943Z,7.00
2018-07-27T04:51:23.869Z,8.30
2018-07-27T04:56:14.786Z,7.70
2018-07-27T05:01:05.687Z,7.73
2018-07-27T05:05:56.608Z,7.40
2018-07-27T05:10:47.532Z,7.23
2018-07-27T05:15:38.433Z,10.17
2018-07-27T05:20:29.341Z,7.80
2018-07-27T05:25:20.335Z,7.23
2018-07-27T05:30:11.984Z,8.87
2018-07-27T05:35:02.890Z,8.13
2018-07-27T05:39:54.545Z,8.10
2018-07-27T05:44:45.448Z,8.33
2018-07-27T05:49:37.105Z,8.90
2018-07-27T05:54:28.000Z,8.03
2018-07-27T05:59:18.980Z,9.97
2018-07-27T06:04:09.928Z,10.00
2018-07-27T06:09:01.713Z,9.00
2018-07-27T06:13:52.647Z,8.97
2018-07-27T06:18:43.560Z,8.17
2018-07-27T06:23:34.483Z,9.17
2018-07-27T06:28:25.440Z,9.23
2018-07-27T06:33:17.083Z,16.03
2018-07-27T06:38:08.783Z,9.60
2018-07-27T06:42:59.716Z,10.13
2018-07-27T06:47:50.611Z,9.37
2018-07-27T06:52:41.566Z,10.00
2018-07-27T06:57:33.216Z,10.07
2018-07-27T07:02:24.917Z,9.57
2018-07-27T07:07:15.818Z,10.23
2018-07-27T07:12:06.725Z,8.43
2018-07-27T07:16:57.650Z,9.23
2018-07-27T07:21:48.585Z,9.80
2018-07-27T07:26:39.495Z,9.43
2018-07-27T07:31:30.391Z,9.53
2018-07-27T07:36:21.300Z,9.73
2018-07-27T07:41:12.947Z,8.50
2018-07-27T07:46:03.847Z,9.20
2018-07-27T07:50:54.747Z,8.83
2018-07-27T07:55:46.409Z,8.03
2018-07-27T08:00:37.420Z,7.90
2018-07-27T08:05:28.372Z,7.60
2018-07-27T08:10:19.271Z,7.40
2018-07-27T08:15:10.415Z,7.70
2018-07-27T08:20:01.357Z,7.13
2018-07-27T08:24:55.275Z,6.20
2018-07-27T08:29:46.302Z,8.13
2018-07-27T08:34:37.284Z,6.40
2018-07-27T08:39:28.291Z,8.63
2018-07-27T08:44:19.200Z,7.27
2018-07-27T08:49:10.126Z,7.50
2018-07-27T08:54:01.318Z,8.23
2018-07-27T08:58:52.308Z,7.20
2018-07-27T09:03:44.048Z,6.57
2018-07-27T09:08:35.710Z,7.87
2018-07-27T09:13:26.626Z,7.93
2018-07-27T09:18:17.556Z,7.03
2018-07-27T09:23:08.468Z,7.40
2018-07-27T09:27:59.381Z,7.63
2018-07-27T09:32:50.358Z,7.60
2018-07-27T09:37:41.359Z,8.43
2018-07-27T09:42:32.271Z,10.53
2018-07-27T09:47:23.195Z,8.80
2018-07-27T09:52:14.134Z,8.27
2018-07-27T09:57:05.144Z,9.93
2018-07-27T10:01:56.093Z,8.30
2018-07-27T10:06:47.828Z,8.17
2018-07-27T10:11:39.597Z,6.83
2018-07-27T10:16:30.550Z,8.47
2018-07-27T10:21:21.771Z,8.83
2018-07-27T10:26:12.706Z,7.97
2018-07-27T10:31:03.784Z,8.30
2018-07-27T10:35:54.828Z,7.47
2018-07-27T10:40:45.811Z,7.73
2018-07-27T10:45:36.793Z,6.43
2018-07-27T10:50:28.461Z,6.87
2018-07-27T10:55:19.372Z,6.20
2018-07-27T11:00:11.096Z,6.43
2018-07-27T11:05:02.011Z,6.70
2018-07-27T11:09:53.804Z,5.47
2018-07-27T11:14:45.496Z,5.37
2018-07-27T11:19:37.239Z,5.83
2018-07-27T11:24:28.936Z,5.40
2018-07-27T11:29:19.863Z,5.23
2018-07-27T11:34:10.815Z,5.47
2018-07-27T11:39:02.541Z,5.67
2018-07-27T11:43:53.547Z,5.40
2018-07-27T11:48:44.468Z,4.67
2018-07-27T11:53:35.496Z,6.37
2018-07-27T11:58:26.429Z,5.00
2018-07-27T12:03:18.135Z,5.37
2018-07-27T12:08:09.884Z,5.10
2018-07-27T12:13:00.791Z,5.10
2018-07-27T12:17:51.729Z,5.37
2018-07-27T12:22:42.744Z,5.40
2018-07-27T12:27:35.168Z,4.73
2018-07-27T12:32:26.090Z,5.03
2018-07-27T12:37:17.005Z,4.73
2018-07-27T12:42:07.952Z,4.80
2018-07-27T12:46:58.970Z,4.90
2018-07-27T12:51:50.634Z,4.60
2018-07-27T12:56:42.372Z,5.07
2018-07-27T13:01:34.124Z,4.87
2018-07-27T13:06:25.045Z,4.80
2018-07-27T13:11:16.025Z,5.23
2018-07-27T13:16:07.197Z,4.80
2018-07-27T13:20:59.600Z,4.53
2018-07-27T13:30:43.088Z,4.23
2018-07-27T13:35:34.830Z,3.93
2018-07-27T13:40:26.491Z,4.73
2018-07-27T13:45:17.450Z,4.83
2018-07-27T13:50:08.385Z,4.10
2018-07-27T13:54:59.472Z,4.43
2018-07-27T13:59:50.384Z,3.83
2018-07-27T14:04:41.308Z,4.00
2018-07-27T14:09:32.276Z,4.30
2018-07-27T14:14:23.982Z,4.67
2018-07-27T14:19:15.117Z,4.30
2018-07-27T14:24:06.777Z,4.33
2018-07-27T14:28:58.433Z,4.33
2018-07-27T14:33:49.366Z,4.77
2018-07-27T14:38:40.303Z,5.00
2018-07-27T14:43:31.233Z,3.93
2018-07-27T14:48:22.185Z,5.23
2018-07-27T14:53:13.836Z,5.10
2018-07-27T14:58:04.765Z,4.33
2018-07-27T15:02:55.700Z,4.73
2018-07-27T15:07:46.699Z,4.40
2018-07-27T15:12:37.667Z,4.73
2018-07-27T15:17:28.605Z,4.20
2018-07-27T15:22:19.768Z,4.27
2018-07-27T15:27:10.738Z,4.80
2018-07-27T15:32:02.404Z,5.07
2018-07-27T15:36:54.071Z,5.20
2018-07-27T15:41:45.067Z,4.90
2018-07-27T15:46:35.976Z,4.97
2018-07-27T15:51:27.789Z,4.77
2018-07-27T15:56:18.718Z,4.67
2018-07-27T16:01:09.776Z,4.90
2018-07-27T16:06:00.704Z,4.90
2018-07-27T16:10:51.763Z,5.23
2018-07-27T16:15:42.839Z,4.53
2018-07-27T16:20:34.048Z,4.53
2018-07-27T16:25:24.954Z,4.50
2018-07-27T16:30:16.833Z,5.10
2018-07-27T16:35:07.751Z,4.93
2018-07-27T16:39:58.666Z,5.57
2018-07-27T16:44:49.588Z,5.27
2018-07-27T16:49:40.638Z,6.10
2018-07-27T16:54:31.654Z,5.10
2018-07-27T16:59:22.655Z,5.30
2018-07-27T17:04:13.712Z,5.57
2018-07-27T17:09:04.843Z,6.77
2018-07-27T17:13:55.841Z,6.00
2018-07-27T17:18:46.766Z,6.23
2018-07-27T17:23:37.738Z,6.30
2018-07-27T17:28:28.708Z,5.80
2018-07-27T17:33:19.657Z,6.30
2018-07-27T17:38:11.320Z,6.10
2018-07-27T17:43:02.265Z,6.50
2018-07-27T17:47:53.177Z,6.00
2018-07-27T17:52:44.078Z,5.53
2018-07-27T17:57:35.127Z,6.47
2018-07-27T18:02:26.233Z,6.40
2018-07-27T18:07:17.303Z,6.67
2018-07-27T18:12:08.895Z,6.30
2018-07-27T18:16:59.825Z,6.70
2018-07-27T18:21:50.764Z,7.47
2018-07-27T18:26:41.697Z,6.83
2018-07-27T18:31:32.736Z,6.27
2018-07-27T18:36:24.390Z,6.80
2018-07-27T18:41:15.356Z,6.77
2018-07-27T18:46:06.311Z,6.67
2018-07-27T18:50:58.011Z,7.00
2018-07-27T18:55:49.044Z,6.50
2018-07-27T19:00:39.964Z,6.63
2018-07-27T19:05:30.927Z,6.60
2018-07-27T19:10:21.843Z,6.80
2018-07-27T19:15:12.760Z,7.43
2018-07-27T19:20:03.680Z,6.27
2018-07-27T19:24:54.600Z,7.00
2018-07-27T19:29:45.527Z,6.90
2018-07-27T19:34:36.459Z,6.43
2018-07-27T19:39:27.391Z,7.40
2018-07-27T19:44:18.337Z,6.73
2018-07-27T19:49:09.275Z,6.80
2018-07-27T19:54:00.929Z,7.20
2018-07-27T19:58:51.865Z,7.43
2018-07-27T20:03:42.823Z,7.30
2018-07-27T20:08:33.861Z,11.03
2018-07-27T20:13:25.573Z,7.53
2018-07-27T20:18:16.482Z,6.73
2018-07-27T20:23:07.459Z,7.97
2018-07-27T20:27:59.173Z,6.73
2018-07-27T20:32:50.897Z,7.27
2018-07-27T20:37:41.953Z,7.63
2018-07-27T20:42:32.890Z,6.67
2018-07-27T20:47:23.805Z,7.87
2018-07-27T20:52:14.717Z,6.67
2018-07-27T20:57:05.686Z,7.93
2018-07-27T21:01:56.551Z,7.27
2018-07-27T21:06:47.470Z,7.90
2018-07-27T21:11:38.375Z,8.13
2018-07-27T21:16:29.334Z,7.40
2018-07-27T21:21:20.285Z,8.03
2018-07-27T21:26:11.204Z,7.60
2018-07-27T21:31:02.951Z,7.63
2018-07-27T21:35:53.817Z,8.33
2018-07-27T21:40:44.752Z,8.17
2018-07-27T21:45:35.715Z,8.10
2018-07-27T21:50:26.637Z,8.27
2018-07-27T21:55:18.314Z,7.30
2018-07-27T22:00:09.251Z,7.97
2018-07-27T22:05:00.196Z,7.37
2018-07-27T22:09:51.895Z,8.57
2018-07-27T22:14:42.819Z,7.77
2018-07-27T22:19:33.752Z,7.23
2018-07-27T22:24:24.678Z,8.70
2018-07-27T22:29:15.639Z,7.93
2018-07-27T22:34:06.576Z,8.10
2018-07-27T22:38:57.498Z,7.57
2018-07-27T22:43:48.416Z,7.63
2018-07-27T22:48:39.385Z,7.60
2018-07-27T22:53:31.065Z,7.97
2018-07-27T22:58:22.022Z,8.10
2018-07-27T23:03:12.946Z,7.90
2018-07-27T23:08:04.012Z,7.77
2018-07-27T23:12:54.954Z,8.73
2018-07-27T23:17:45.916Z,8.17
2018-07-27T23:22:37.590Z,7.57
2018-07-27T23:27:28.536Z,7.80
2018-07-27T23:32:19.472Z,8.83
2018-07-27T23:37:10.412Z,6.90
2018-07-27T23:42:02.067Z,7.47
2018-07-27T23:46:53.016Z,6.83
2018-07-27T23:51:43.923Z,7.70
2018-07-27T23:56:34.851Z,8.00
